Time;durP1;ratioP1;P1;durP2;ratioP2;P2;SDS_P1;SDS_P2;PMS_P1;PMS_P2;Temp;Humidity;BMP_temperature;BMP_pressure;BME280_temperature;BME280_humidity;BME280_pressure;Samples;Min_cycle;Max_cycle;Signal;HPM_P1;HPM_P2
2023/10/07 00:01:45;;;;;;;3.00;1.85;;;;;;;11.07;100.00;98444.03;1226390;75;2924952;-70
2023/10/07 00:04:18;;;;;;;2.15;1.60;;;;;;;11.05;100.00;98443.72;1224315;75;2947030;-69
2023/10/07 00:06:53;;;;;;;2.30;1.60;;;;;;;11.04;100.00;98442.19;1224653;75;2914924;-73
2023/10/07 00:09:26;;;;;;;4.00;2.15;;;;;;;10.82;100.00;98436.91;1214084;75;3889372;-69
2023/10/07 00:12:01;;;;;;;3.30;2.00;;;;;;;10.87;100.00;98430.81;1213535;75;3839700;-71
2023/10/07 00:14:36;;;;;;;4.10;2.00;;;;;;;10.89;100.00;98431.13;1226474;75;2911368;-68
2023/10/07 00:17:16;;;;;;;2.20;1.70;;;;;;;10.78;100.00;98422.63;1223579;75;2917200;-69
2023/10/07 00:19:50;;;;;;;2.20;1.60;;;;;;;10.83;100.00;98424.75;1220927;75;3033553;-68
2023/10/07 00:22:27;;;;;;;4.90;2.75;;;;;;;10.68;100.00;98437.53;1223986;75;2952866;-70
2023/10/07 00:24:59;;;;;;;3.05;2.10;;;;;;;10.68;100.00;98429.31;1225818;75;2916769;-69
2023/10/07 00:27:38;;;;;;;3.65;2.05;;;;;;;10.83;100.00;98424.75;1226431;75;2917451;-74
2023/10/07 00:30:16;;;;;;;;;;;;;;;10.83;100.00;98413.78;1214500;75;3842376;-71
2023/10/07 00:32:50;;;;;;;2.80;2.10;;;;;;;10.76;100.00;98420.34;1222742;75;3067474;-68
2023/10/07 00:35:23;;;;;;;4.35;2.15;;;;;;;10.58;100.00;98417.59;1225469;75;2932161;-74
2023/10/07 00:37:58;;;;;;;4.55;2.50;;;;;;;10.75;100.00;98407.09;1220134;75;3030761;-70
2023/10/07 00:40:41;;;;;;;3.95;2.65;;;;;;;10.50;100.00;98408.94;1225441;75;2918813;-74
2023/10/07 00:43:25;;;;;;;3.00;1.90;;;;;;;10.72;100.00;98402.53;1208309;75;3991749;-71
2023/10/07 00:46:08;;;;;;;2.45;1.70;;;;;;;10.65;100.00;98401.66;1210426;75;4056049;-72
2023/10/07 00:48:47;;;;;;;2.80;1.80;;;;;;;10.64;100.00;98394.63;1225356;75;2918260;-70
2023/10/07 00:51:33;;;;;;;3.55;1.75;;;;;;;10.43;100.00;98398.28;1225163;75;2917971;-69
2023/10/07 00:54:18;;;;;;;2.20;1.75;;;;;;;10.56;100.00;98395.38;1222341;75;2999874;-71
2023/10/07 00:57:04;;;;;;;3.20;2.00;;;;;;;10.51;100.00;98405.00;1213134;75;3858121;-72
2023/10/07 00:59:40;;;;;;;3.20;2.35;;;;;;;10.42;100.00;98394.03;1222794;75;2975725;-71
2023/10/07 01:02:18;;;;;;;4.50;2.00;;;;;;;10.13;100.00;98397.19;1221850;75;3051514;-73
2023/10/07 01:04:51;;;;;;;4.40;3.20;;;;;;;9.75;100.00;98393.63;1196657;67;4082554;-72
2023/10/07 01:07:24;;;;;;;6.10;3.60;;;;;;;9.88;100.00;98390.75;1224384;75;3018073;-69
2023/10/07 01:10:12;;;;;;;5.20;3.15;;;;;;;10.05;100.00;98377.56;1225869;75;2917593;-68
2023/10/07 01:12:45;;;;;;;3.50;2.50;;;;;;;10.20;100.00;98373.03;1223213;75;3030329;-69
2023/10/07 01:15:23;;;;;;;2.95;2.05;;;;;;;10.22;100.00;98376.06;1222764;75;3079060;-71
2023/10/07 01:18:03;;;;;;;3.00;2.35;;;;;;;10.23;100.00;98379.56;1225482;75;2946170;-71
2023/10/07 01:20:38;;;;;;;3.60;2.20;;;;;;;10.33;100.00;98380.34;1226133;75;2921893;-71
2023/10/07 01:23:17;;;;;;;3.30;2.05;;;;;;;10.39;100.00;98376.56;1225092;75;2922191;-70
2023/10/07 01:25:51;;;;;;;5.25;1.65;;;;;;;10.30;100.00;98370.31;1225935;75;2915759;-70
2023/10/07 01:28:26;;;;;;;2.60;1.90;;;;;;;10.28;100.00;98368.03;1225934;75;2912561;-70
2023/10/07 01:31:12;;;;;;;2.15;1.50;;;;;;;10.37;100.00;98375.50;1225921;75;2921022;-69
2023/10/07 01:33:45;;;;;;;3.00;2.10;;;;;;;10.20;100.00;98373.03;1225393;75;2914300;-69
2023/10/07 01:36:20;;;;;;;3.00;2.10;;;;;;;9.91;100.00;98370.72;1195598;75;4107123;-71
2023/10/07 01:39:01;;;;;;;3.25;2.05;;;;;;;10.20;100.00;98373.03;1221974;75;3085645;-73
2023/10/07 01:41:38;;;;;;;3.20;1.90;;;;;;;10.23;100.00;98377.56;1212014;75;3977188;-73
2023/10/07 01:44:10;;;;;;;2.50;2.10;;;;;;;10.09;100.00;98374.69;1223438;75;3050310;-72
2023/10/07 01:46:44;;;;;;;4.20;2.40;;;;;;;9.87;100.00;98367.38;1220767;75;3064474;-70
2023/10/07 01:49:17;;;;;;;3.10;2.30;;;;;;;9.99;100.00;98369.19;1226560;75;2915706;-70
2023/10/07 01:51:52;;;;;;;4.05;2.85;;;;;;;9.77;100.00;98358.38;1213925;75;3839666;-69
2023/10/07 01:54:29;;;;;;;4.45;3.05;;;;;;;9.75;100.00;98352.59;1226354;75;2916578;-72
2023/10/07 01:57:04;;;;;;;3.45;2.45;;;;;;;10.08;100.00;98356.72;1222655;75;3078190;-68
2023/10/07 01:59:37;;;;;;;4.20;2.72;;;;;;;9.78;100.00;98348.19;1199075;75;4960154;-69
2023/10/07 02:02:12;;;;;;;3.00;2.25;;;;;;;9.94;100.00;98349.91;1225275;75;2916287;-68
2023/10/07 02:04:46;;;;;;;3.40;2.20;;;;;;;9.83;100.00;98347.59;1223353;75;3061784;-70
2023/10/07 02:07:19;;;;;;;3.55;2.40;;;;;;;9.64;100.00;98344.06;1200747;75;4923439;-72
2023/10/07 02:09:56;;;;;;;3.40;2.70;;;;;;;9.71;100.00;98349.25;1220125;75;3057357;-72
2023/10/07 02:12:32;;;;;;;3.30;2.20;;;;;;;9.88;100.00;98357.19;1226181;75;2916434;-71
2023/10/07 02:15:18;;;;;;;3.60;2.40;;;;;;;10.00;100.00;98353.53;1226475;75;2918468;-71
2023/10/07 02:17:56;;;;;;;2.90;1.70;;;;;;;9.93;100.00;98353.84;1224621;75;2947609;-69
2023/10/07 02:20:37;;;;;;;2.80;1.75;;;;;;;9.71;100.00;98351.97;1222162;75;3091174;-70
2023/10/07 02:23:12;;;;;;;5.05;3.40;;;;;;;9.43;100.00;98355.84;1202044;75;4839419;-70
2023/10/07 02:25:49;;;;;;;3.50;2.35;;;;;;;9.71;100.00;98351.97;1212033;75;3919862;-72
2023/10/07 02:28:22;;;;;;;3.50;2.70;;;;;;;9.72;100.00;98350.03;1226680;75;2919181;-72
2023/10/07 02:31:00;;;;;;;2.30;1.80;;;;;;;9.86;100.00;98349.44;1227021;75;2909571;-71
2023/10/07 02:33:41;;;;;;;3.20;1.90;;;;;;;9.84;100.00;98351.09;1222496;75;3074004;-71
2023/10/07 02:36:28;;;;;;;2.95;2.10;;;;;;;9.87;100.00;98345.47;1226114;75;2912694;-69
2023/10/07 02:39:04;;;;;;;4.40;2.95;;;;;;;9.68;100.00;98350.16;1214089;75;3796076;-68
2023/10/07 02:41:46;;;;;;;3.90;2.90;;;;;;;9.73;100.00;98349.56;1219993;75;3058500;-70
2023/10/07 02:44:26;;;;;;;3.60;2.50;;;;;;;9.56;100.00;98349.06;1221136;75;3001812;-70
2023/10/07 02:47:06;;;;;;;2.15;1.85;;;;;;;9.56;100.00;98348.31;1225902;75;2921400;-66
2023/10/07 02:49:38;;;;;;;3.40;2.15;;;;;;;9.62;100.00;98351.97;1210079;75;4038138;-70
2023/10/07 02:52:16;;;;;;;3.00;2.35;;;;;;;9.46;100.00;98350.25;1226051;75;2930881;-71
2023/10/07 02:55:27;;;;;;;3.10;1.90;;;;;;;9.60;100.00;98338.00;1226247;75;2915181;-69
2023/10/07 02:57:47;;;;;;;3.30;2.25;;;;;;;9.51;100.00;98343.44;1225882;75;2913966;-71
2023/10/07 03:00:29;;;;;;;3.65;2.40;;;;;;;9.50;100.00;98356.34;1224924;75;2923500;-72
2023/10/07 03:03:11;;;;;;;3.35;2.50;;;;;;;9.41;100.00;98353.59;1197585;75;5066224;-69
2023/10/07 03:05:46;;;;;;;2.95;2.08;;;;;;;9.56;100.00;98351.03;1199827;75;4884030;-70
2023/10/07 03:08:22;;;;;;;1.80;1.60;;;;;;;9.48;100.00;98345.09;1225518;75;2915673;-68
2023/10/07 03:11:03;;;;;;;2.45;1.75;;;;;;;9.48;100.00;98352.53;1214229;75;3801929;-73
2023/10/07 03:13:38;;;;;;;2.20;1.40;;;;;;;9.55;100.00;98358.47;1226555;75;2915975;-70
2023/10/07 03:16:27;;;;;;;1.65;1.25;;;;;;;9.53;100.00;98351.94;1225261;75;2923070;-71
2023/10/07 03:19:20;;;;;;;3.40;1.70;;;;;;;9.54;100.00;98351.47;1206038;75;4024682;-68
2023/10/07 03:22:09;;;;;;;1.95;1.60;;;;;;;9.34;100.00;98343.69;1224300;75;2923551;-70
2023/10/07 03:24:54;;;;;;;2.45;1.55;;;;;;;9.43;100.00;98344.91;1225516;75;2920990;-72
2023/10/07 03:27:27;;;;;;;2.30;1.70;;;;;;;9.41;100.00;98342.66;1211625;75;3956062;-73
2023/10/07 03:30:12;;;;;;;1.95;1.50;;;;;;;9.45;100.00;98347.97;1225263;75;2922384;-70
2023/10/07 03:32:57;;;;;;;2.00;1.50;;;;;;;9.39;100.00;98351.28;1212148;75;3954437;-70
2023/10/07 03:35:59;;;;;;;2.45;1.90;;;;;;;9.40;100.00;98346.56;1225590;75;2920189;-73
2023/10/07 03:38:32;;;;;;;1.80;1.25;;;;;;;9.37;100.00;98348.25;1225876;75;2913756;-68
2023/10/07 03:41:09;;;;;;;2.65;1.75;;;;;;;9.36;100.00;98345.97;1225822;75;2918420;-69
2023/10/07 03:43:42;;;;;;;2.45;1.30;;;;;;;9.32;100.00;98348.06;1227177;75;2835676;-74
2023/10/07 03:46:17;;;;;;;2.30;1.70;;;;;;;9.37;100.00;98353.72;1184583;75;4966010;-68
2023/10/07 03:48:53;;;;;;;1.95;1.40;;;;;;;9.34;100.00;98348.41;1225575;75;2918538;-70
2023/10/07 03:51:30;;;;;;;1.70;1.20;;;;;;;9.33;100.00;98341.38;1226355;75;2929587;-69
2023/10/07 03:54:09;;;;;;;2.40;1.80;;;;;;;9.17;100.00;98347.88;1224836;75;2925248;-71
2023/10/07 03:56:42;;;;;;;2.40;1.70;;;;;;;9.15;100.00;98347.56;1221321;75;3032611;-69
2023/10/07 03:59:15;;;;;;;2.40;1.65;;;;;;;9.20;100.00;98343.47;1211960;75;3821729;-67
2023/10/07 04:01:53;;;;;;;1.70;1.50;;;;;;;9.21;100.00;98339.53;1225886;75;2912985;-70
2023/10/07 04:04:28;;;;;;;2.50;2.00;;;;;;;9.16;100.00;98340.88;1183838;75;4795617;-69
2023/10/07 04:07:01;;;;;;;2.40;1.75;;;;;;;9.15;100.00;98342.09;1224985;75;2927508;-72
2023/10/07 04:09:33;;;;;;;3.50;2.15;;;;;;;9.00;100.00;98335.66;1224151;75;2934027;-68
2023/10/07 04:12:08;;;;;;;2.90;2.40;;;;;;;8.92;100.00;98341.41;1223393;75;2935573;-70
2023/10/07 04:14:42;;;;;;;2.85;2.15;;;;;;;8.95;100.00;98337.75;1224955;75;2925939;-68
2023/10/07 04:17:18;;;;;;;3.10;2.10;;;;;;;8.96;100.00;98335.78;1210306;75;4065873;-71
2023/10/07 04:19:52;;;;;;;2.45;1.75;;;;;;;9.08;100.00;98328.72;1225994;75;2921925;-68
2023/10/07 04:22:25;;;;;;;2.65;1.85;;;;;;;9.12;100.00;98332.06;1225795;75;2917077;-73
2023/10/07 04:25:07;;;;;;;2.20;1.75;;;;;;;9.15;100.00;98318.25;1209267;75;4010609;-69
2023/10/07 04:27:42;;;;;;;1.70;1.45;;;;;;;9.15;100.00;98329.19;1219535;75;3094567;-69
2023/10/07 04:30:17;;;;;;;2.65;1.80;;;;;;;9.13;100.00;98330.84;1222712;75;2945031;-70
2023/10/07 04:33:00;;;;;;;2.40;1.60;;;;;;;9.08;100.00;98325.97;1225459;75;2922301;-69
2023/10/07 04:35:33;;;;;;;2.15;1.60;;;;;;;8.96;100.00;98325.63;1224424;75;2924047;-72
2023/10/07 04:38:30;;;;;;;2.15;1.65;;;;;;;8.95;100.00;98337.00;1206175;75;4046694;-69
2023/10/07 04:43:54;;;;;;;4.85;2.85;;;;;;;8.76;100.00;98327.94;1221474;75;2917278;-71
2023/10/07 04:46:28;;;;;;;3.40;2.50;;;;;;;8.91;100.00;98320.75;1221956;75;3053882;-68
2023/10/07 04:49:12;;;;;;;7.00;3.85;;;;;;;8.69;100.00;98328.22;1206682;75;4017203;-69
2023/10/07 04:51:48;;;;;;;5.60;4.20;;;;;;;8.93;100.00;98334.72;1222467;75;3032309;-70
2023/10/07 04:54:23;;;;;;;5.00;3.65;;;;;;;8.92;100.00;98330.47;1224980;75;2918633;-69
2023/10/07 04:57:00;;;;;;;3.70;2.90;;;;;;;9.04;100.00;98339.00;1224005;75;2920363;-70
2023/10/07 04:59:33;;;;;;;4.00;2.95;;;;;;;8.76;100.00;98335.38;1225310;75;2912991;-70
2023/10/07 05:02:10;;;;;;;3.30;2.55;;;;;;;8.74;100.00;98327.63;1213256;75;3787412;-68
2023/10/07 05:04:50;;;;;;;3.25;2.60;;;;;;;8.90;100.00;98330.16;1212005;75;3867881;-69
2023/10/07 05:07:26;;;;;;;3.55;2.40;;;;;;;8.94;100.00;98322.56;1224102;83;2922697;-69
2023/10/07 05:10:01;;;;;;;3.00;1.95;;;;;;;8.87;100.00;98335.72;1222959;75;2938766;-71
2023/10/07 05:12:31;;;;;;;3.60;2.45;;;;;;;8.66;100.00;98340.78;1213968;75;3213660;-69
2023/10/07 05:15:05;;;;;;;4.80;3.20;;;;;;;8.63;100.00;98341.66;1222610;75;2991438;-69
2023/10/07 05:17:36;;;;;;;3.70;2.40;;;;;;;8.67;100.00;98339.56;1209546;75;4018683;-73
2023/10/07 05:20:27;;;;;;;4.35;3.00;;;;;;;8.50;100.00;98343.72;1225011;75;2939665;-70
2023/10/07 05:23:04;;;;;;;3.70;2.40;;;;;;;8.70;100.00;98341.41;1224691;75;2930621;-69
2023/10/07 05:25:43;;;;;;;3.15;2.35;;;;;;;8.70;100.00;98352.31;1212193;75;3854798;-71
2023/10/07 05:28:17;;;;;;;3.80;2.80;;;;;;;8.67;100.00;98347.00;1213801;75;3854771;-69
2023/10/07 05:30:53;;;;;;;3.95;2.85;;;;;;;8.55;100.00;98347.84;1225351;75;2923374;-66
2023/10/07 05:33:28;;;;;;;4.75;3.25;;;;;;;8.88;100.00;98343.50;1221011;75;3093202;-70
2023/10/07 05:36:13;;;;;;;3.95;3.10;;;;;;;8.88;100.00;98357.16;1223308;75;2924585;-72
2023/10/07 05:38:48;;;;;;;5.20;3.10;;;;;;;9.12;100.00;98353.94;1211953;75;3876360;-72
2023/10/07 05:41:25;;;;;;;4.45;2.70;;;;;;;9.19;100.00;98361.84;1223881;75;2931922;-68
2023/10/07 05:43:57;;;;;;;3.90;2.90;;;;;;;9.30;100.00;98359.44;1224837;75;2930254;-69
2023/10/07 05:46:32;;;;;;;3.90;2.80;;;;;;;9.36;100.00;98360.41;1225556;75;2924503;-70
2023/10/07 05:49:06;;;;;;;4.40;3.05;;;;;;;9.45;100.00;98358.91;1223594;75;2966951;-73
2023/10/07 05:51:42;;;;;;;3.95;3.00;;;;;;;9.51;100.00;98365.31;1225081;75;2926436;-73
2023/10/07 05:54:18;;;;;;;3.35;2.85;;;;;;;9.36;100.00;98362.38;1223314;75;2933950;-70
2023/10/07 05:56:51;;;;;;;3.30;2.50;;;;;;;9.33;100.00;98369.50;1209966;75;4030217;-73
2023/10/07 05:59:26;;;;;;;3.15;2.55;;;;;;;9.34;100.00;98373.75;1224319;75;2919402;-72
2023/10/07 06:02:01;;;;;;;3.15;2.30;;;;;;;9.50;100.00;98380.16;1222882;75;2933318;-71
2023/10/07 06:04:34;;;;;;;4.40;3.40;;;;;;;9.46;100.00;98377.59;1196007;75;4989618;-71
2023/10/07 06:07:10;;;;;;;5.65;4.10;;;;;;;9.42;100.00;98384.41;1225337;75;2925298;-69
2023/10/07 06:09:44;;;;;;;5.70;4.00;;;;;;;9.94;100.00;98382.72;1223790;75;2921724;-71
2023/10/07 06:12:18;;;;;;;5.05;3.15;;;;;;;10.84;100.00;98379.69;1221641;75;2983584;-67
2023/10/07 06:14:50;;;;;;;3.05;2.55;;;;;;;12.26;100.00;98381.66;1221586;75;3043717;-69
2023/10/07 06:17:25;;;;;;;3.35;2.50;;;;;;;13.04;100.00;98381.56;1220865;75;2967780;-72
2023/10/07 06:19:58;;;;;;;5.80;4.20;;;;;;;13.23;100.00;98377.38;1208676;75;3989356;-71
2023/10/07 06:22:39;;;;;;;6.15;4.00;;;;;;;14.62;97.36;98376.19;1222658;75;2937825;-71
2023/10/07 06:25:12;;;;;;;4.55;3.20;;;;;;;17.13;78.46;98385.59;1221195;75;3063331;-68
2023/10/07 06:27:45;;;;;;;6.10;4.60;;;;;;;17.01;75.90;98386.88;1221787;75;3019485;-72
2023/10/07 06:30:20;;;;;;;10.45;7.60;;;;;;;16.13;76.43;98392.38;1224129;75;2915656;-68
2023/10/07 06:32:55;;;;;;;8.05;5.20;;;;;;;15.38;82.84;98397.19;1223715;75;2920576;-74
2023/10/07 06:35:27;;;;;;;4.90;3.85;;;;;;;17.17;77.46;98393.66;1225816;75;2918732;-69
2023/10/07 06:38:03;;;;;;;5.80;3.70;;;;;;;17.55;72.92;98394.88;1207832;75;3955506;-71
2023/10/07 06:40:36;;;;;;;12.75;9.85;;;;;;;17.09;72.82;98392.66;1225453;75;2930515;-68
2023/10/07 06:43:14;;;;;;;7.60;4.85;;;;;;;16.98;72.90;98390.63;1223510;75;2934645;-72
2023/10/07 06:45:46;;;;;;;4.60;3.45;;;;;;;17.02;72.36;98391.13;1221340;75;2951909;-69
2023/10/07 06:48:23;;;;;;;4.15;3.05;;;;;;;19.31;65.66;98393.59;1221975;75;2943544;-71
2023/10/07 06:50:56;;;;;;;3.70;3.00;;;;;;;17.57;68.15;98395.13;1223713;75;2939639;-75
2023/10/07 06:53:31;;;;;;;2.75;2.10;;;;;;;16.81;73.31;98388.59;1223634;75;2938720;-66
2023/10/07 06:56:04;;;;;;;3.40;2.30;;;;;;;16.97;74.72;98394.66;1224938;75;2932837;-69
2023/10/07 06:58:36;;;;;;;2.50;1.75;;;;;;;17.13;72.26;98395.94;1222862;75;3023403;-72
2023/10/07 07:01:17;;;;;;;2.90;2.05;;;;;;;18.94;66.51;98392.09;1209679;75;4072173;-69
2023/10/07 07:03:51;;;;;;;2.90;1.80;;;;;;;22.00;56.98;98396.03;1223343;75;2923764;-67
2023/10/07 07:06:34;;;;;;;2.50;2.05;;;;;;;23.50;51.96;98384.13;1222956;75;2999773;-71
2023/10/07 07:09:41;;;;;;;3.10;1.70;;;;;;;22.89;52.23;98394.72;1220652;75;3108997;-72
2023/10/07 07:12:06;;;;;;;4.20;2.50;;;;;;;18.51;62.74;98400.91;1224669;75;2921679;-72
2023/10/07 07:14:42;;;;;;;6.20;3.55;;;;;;;17.20;70.38;98414.81;1218133;75;3078154;-67
2023/10/07 07:22:52;;;;;;;4.40;3.40;;;;;;;15.57;86.00;98408.63;1225022;75;2932598;-70
2023/10/07 07:25:35;;;;;;;5.60;3.80;;;;;;;15.48;90.34;98404.03;1224951;67;2931727;-71
2023/10/07 07:28:14;;;;;;;6.30;4.05;;;;;;;15.26;89.80;98415.66;1224068;75;2923276;-69
2023/10/07 07:30:45;;;;;;;;;;;;;;;15.19;99.17;98405.81;1221995;75;2955109;-67
2023/10/07 07:33:22;;;;;;;6.30;4.40;;;;;;;15.54;94.58;98411.09;1221131;75;3079189;-71
2023/10/07 07:35:56;;;;;;;5.40;3.90;;;;;;;15.91;91.74;98407.59;1225046;75;2924692;-73
2023/10/07 07:38:32;;;;;;;6.90;4.20;;;;;;;16.43;85.75;98414.09;1222960;75;2921367;-67
2023/10/07 07:41:09;;;;;;;5.50;4.05;;;;;;;19.87;69.68;98406.22;1225016;75;2918469;-68
2023/10/07 07:43:43;;;;;;;4.80;3.35;;;;;;;21.26;60.63;98418.06;1224646;75;2927755;-68
2023/10/07 07:46:26;;;;;;;5.10;3.45;;;;;;;23.17;57.39;98410.84;1224340;75;2935089;-70
2023/10/07 07:49:06;;;;;;;6.30;4.20;;;;;;;23.90;54.53;98406.22;1223318;75;2920745;-69
2023/10/07 07:51:41;;;;;;;11.55;8.00;;;;;;;23.03;53.65;98398.97;1223738;75;2920712;-71
2023/10/07 07:54:14;;;;;;;11.45;8.25;;;;;;;24.06;51.97;98395.13;1222921;75;2929299;-72
2023/10/07 07:56:50;;;;;;;6.00;3.95;;;;;;;22.76;56.48;98410.22;1224343;75;2920303;-72
2023/10/07 07:59:22;;;;;;;6.65;3.70;;;;;;;24.06;54.92;98400.72;1220473;75;3039680;-67
2023/10/07 08:02:01;;;;;;;6.80;3.70;;;;;;;23.78;53.25;98405.03;1222674;75;2977319;-68
2023/10/07 08:04:46;;;;;;;5.15;3.20;;;;;;;23.14;55.33;98403.56;1225030;75;2912258;-67
2023/10/07 08:07:27;;;;;;;4.15;3.15;;;;;;;23.04;55.15;98394.13;1224802;75;2925695;-68
2023/10/07 08:10:03;;;;;;;7.55;3.00;;;;;;;24.16;53.59;98396.84;1221042;75;3086495;-69
2023/10/07 08:12:38;;;;;;;3.30;2.35;;;;;;;26.44;48.42;98382.06;1161592;75;6441682;-68
2023/10/07 08:15:21;;;;;;;5.25;3.35;;;;;;;23.24;53.95;98396.19;1223920;75;2921480;-71
2023/10/07 08:17:56;;;;;;;4.55;3.15;;;;;;;24.49;52.51;98388.09;1224526;75;2928299;-67
2023/10/07 08:20:37;;;;;;;3.90;2.45;;;;;;;24.74;51.58;98389.09;1221141;75;2991365;-70
2023/10/07 08:23:21;;;;;;;4.80;3.10;;;;;;;22.18;56.82;98397.22;1225160;75;2925341;-68
2023/10/07 08:25:58;;;;;;;5.95;3.45;;;;;;;23.13;54.25;98391.63;1223730;75;2922106;-70
2023/10/07 08:28:42;;;;;;;5.70;4.00;;;;;;;19.29;65.64;98398.91;1224961;75;2903367;-69
2023/10/07 08:31:17;;;;;;;5.90;3.70;;;;;;;19.89;66.16;98397.38;1224419;75;2934557;-67
2023/10/07 08:33:53;;;;;;;5.70;4.15;;;;;;;19.05;69.71;98390.50;1224279;75;2935895;-67
2023/10/07 08:36:30;;;;;;;4.25;3.50;;;;;;;21.17;64.73;98396.97;1224637;75;2929975;-72
2023/10/07 08:39:05;;;;;;;6.75;3.80;;;;;;;19.48;67.62;98392.69;1224253;75;2920679;-68
2023/10/07 08:41:40;;;;;;;6.25;4.15;;;;;;;19.41;70.68;98396.03;1224242;75;2921446;-68
2023/10/07 08:44:18;;;;;;;6.15;3.90;;;;;;;18.12;74.55;98387.22;1217562;75;3023529;-68
2023/10/07 08:46:53;;;;;;;6.70;3.50;;;;;;;19.20;71.63;98390.91;1225069;75;2921317;-69
2023/10/07 08:49:27;;;;;;;4.65;3.55;;;;;;;19.44;69.13;98383.91;1223576;75;2920580;-71
2023/10/07 08:52:01;;;;;;;5.35;3.50;;;;;;;19.86;69.33;98392.84;1220938;75;3046987;-70
2023/10/07 08:54:37;;;;;;;4.05;2.90;;;;;;;20.31;66.80;98395.88;1225355;75;2915541;-69
2023/10/07 08:57:16;;;;;;;4.05;2.60;;;;;;;20.85;64.42;98383.78;1224624;75;2919282;-71
2023/10/07 08:59:52;;;;;;;6.35;4.40;;;;;;;20.06;65.74;98389.59;1223564;75;2871970;-71
2023/10/07 09:02:31;;;;;;;5.50;3.25;;;;;;;21.13;63.31;98398.56;1224432;75;2922536;-67
2023/10/07 09:05:09;;;;;;;3.70;2.50;;;;;;;21.64;60.82;98401.28;1222932;75;2932548;-71
2023/10/07 09:07:48;;;;;;;4.10;3.10;;;;;;;22.25;60.02;98393.06;1225847;75;2865446;-69
2023/10/07 09:10:28;;;;;;;4.80;3.50;;;;;;;20.99;62.08;98397.75;1220395;75;3036459;-70
2023/10/07 09:13:04;;;;;;;6.80;4.45;;;;;;;19.70;65.91;98394.53;1224186;75;2921643;-70
2023/10/07 09:15:42;;;;;;;5.10;3.35;;;;;;;21.42;63.15;98394.06;1220810;75;3092001;-76
2023/10/07 09:18:17;;;;;;;5.20;3.70;;;;;;;21.89;61.87;98385.13;1222349;75;3064833;-69
2023/10/07 09:20:50;;;;;;;4.50;3.60;;;;;;;21.31;61.11;98397.00;1223785;75;2931293;-68
2023/10/07 09:23:23;;;;;;;4.65;2.90;;;;;;;23.08;58.07;98377.78;1224649;75;2919875;-70
2023/10/07 09:25:56;;;;;;;5.10;3.40;;;;;;;22.31;58.89;98383.28;1223659;75;2918511;-69
2023/10/07 09:28:31;;;;;;;5.40;3.40;;;;;;;22.49;58.93;98386.47;1217157;75;3016634;-69
2023/10/07 09:31:09;;;;;;;6.40;4.00;;;;;;;21.51;60.42;98379.72;1224105;75;2925628;-73
2023/10/07 09:33:45;;;;;;;;;;;;;;;21.67;60.59;98375.88;1220432;75;3050766;-70
2023/10/07 09:36:33;;;;;;;4.50;3.15;;;;;;;22.42;59.90;98376.72;1222678;75;3035612;-69
2023/10/07 09:41:55;;;;;;;5.90;3.55;;;;;;;22.65;59.04;98367.84;1223701;75;2924799;-69
2023/10/07 09:44:26;;;;;;;5.05;3.40;;;;;;;21.59;60.62;98374.25;1224623;75;2925901;-72
2023/10/07 09:47:14;;;;;;;4.90;2.95;;;;;;;22.93;57.96;98364.41;1223717;75;2923307;-69
2023/10/07 09:49:47;;;;;;;6.25;3.50;;;;;;;22.81;57.98;98363.19;1224397;75;2940648;-70
2023/10/07 09:52:29;;;;;;;5.30;3.00;;;;;;;23.38;56.19;98358.50;1221204;75;3057847;-68
2023/10/07 09:55:33;;;;;;;6.55;3.35;;;;;;;22.41;58.79;98361.25;1223430;75;2937872;-72
2023/10/07 09:58:36;;;;;;;4.15;2.80;;;;;;;23.53;55.19;98368.31;1198111;83;5050755;-71
2023/10/07 10:01:37;;;;;;;3.80;2.75;;;;;;;23.31;56.25;98358.44;1212310;75;3795837;-69
2023/10/07 10:04:50;;;;;;;6.15;2.75;;;;;;;23.96;55.96;98348.09;1224190;75;2933196;-69
2023/10/07 10:08:19;;;;;;;4.50;2.40;;;;;;;24.77;54.53;98348.75;1224548;75;2931079;-72
2023/10/07 10:10:57;;;;;;;4.40;2.70;;;;;;;25.44;53.66;98345.84;1225602;75;2914765;-71
2023/10/07 10:13:51;;;;;;;5.20;3.10;;;;;;;24.76;53.47;98338.13;1223604;75;2932994;-67
2023/10/07 10:16:29;;;;;;;4.45;2.85;;;;;;;26.13;51.40;98340.09;1224226;75;2924423;-70
2023/10/07 10:19:21;;;;;;;5.30;3.40;;;;;;;25.15;52.77;98338.91;1225484;75;2928730;-72
2023/10/07 10:21:57;;;;;;;4.25;2.80;;;;;;;24.64;53.99;98327.28;1224236;75;2958226;-69
2023/10/07 10:24:31;;;;;;;3.90;2.40;;;;;;;25.51;52.74;98331.06;1224896;75;2922869;-70
2023/10/07 10:27:07;;;;;;;4.65;2.65;;;;;;;25.46;51.60;98331.25;1224550;75;2918526;-72
2023/10/07 10:29:52;;;;;;;2.75;2.00;;;;;;;26.66;49.61;98329.19;1225033;75;2924687;-71
2023/10/07 10:32:31;;;;;;;4.20;2.70;;;;;;;26.55;48.81;98313.53;1224763;75;2916652;-68
2023/10/07 10:35:07;;;;;;;3.80;2.60;;;;;;;26.51;47.82;98321.59;1224786;75;2922712;-73
2023/10/07 10:37:56;;;;;;;3.35;2.30;;;;;;;27.54;47.49;98317.66;1224403;75;2921481;-74
2023/10/07 10:40:31;;;;;;;3.90;2.20;;;;;;;26.37;48.63;98307.06;1224313;75;2889093;-70
2023/10/07 10:43:04;;;;;;;3.10;2.00;;;;;;;27.54;46.22;98306.41;1224218;75;2922354;-71
2023/10/07 10:45:41;;;;;;;3.40;2.10;;;;;;;28.80;44.75;98300.16;1225171;75;2916230;-72
2023/10/07 10:48:14;;;;;;;6.15;2.55;;;;;;;27.16;42.92;98290.59;1224092;75;2923403;-72
2023/10/07 10:50:55;;;;;;;5.95;3.10;;;;;;;26.42;44.74;98296.94;1224644;75;2931761;-71
2023/10/07 10:53:32;;;;;;;5.25;2.85;;;;;;;26.76;45.58;98290.75;1225421;75;2922604;-71
2023/10/07 10:56:05;;;;;;;5.40;2.75;;;;;;;26.95;45.80;98285.34;1225655;75;2911259;-71
2023/10/07 10:58:39;;;;;;;4.70;2.60;;;;;;;27.70;42.63;98278.09;1223411;75;2972590;-74
2023/10/07 11:01:12;;;;;;;3.85;2.40;;;;;;;27.35;44.32;98273.22;1224604;75;2933613;-74
2023/10/07 11:03:45;;;;;;;4.15;2.50;;;;;;;27.44;44.04;98269.00;1225185;75;2929405;-70
2023/10/07 11:06:19;;;;;;;3.55;2.40;;;;;;;27.92;43.01;98259.50;1225165;75;2916106;-69
2023/10/07 11:08:54;;;;;;;4.20;2.40;;;;;;;27.60;44.40;98261.88;1223405;75;2920324;-73
2023/10/07 11:11:29;;;;;;;3.65;2.45;;;;;;;27.29;46.41;98257.91;1224656;75;2922812;-69
2023/10/07 11:14:09;;;;;;;4.85;2.45;;;;;;;26.78;46.53;98248.78;1224636;75;2924496;-72
2023/10/07 11:16:49;;;;;;;4.10;2.30;;;;;;;27.68;44.62;98258.97;1224955;75;2923101;-70
2023/10/07 11:19:22;;;;;;;4.20;2.80;;;;;;;26.66;45.45;98251.31;1225157;75;2923594;-75
2023/10/07 11:21:54;;;;;;;3.75;2.30;;;;;;;26.80;45.58;98253.84;1211716;75;3900023;-70
2023/10/07 11:24:34;;;;;;;3.55;2.40;;;;;;;26.84;45.76;98240.09;1211152;75;3971230;-71
2023/10/07 11:27:08;;;;;;;5.40;2.65;;;;;;;26.69;47.05;98235.38;1223943;83;2922233;-74
2023/10/07 11:29:42;;;;;;;3.25;2.35;;;;;;;28.24;45.18;98231.09;1224337;75;2923898;-70
2023/10/07 11:32:15;;;;;;;2.65;2.10;;;;;;;29.05;43.83;98230.22;1224640;75;2917245;-72
2023/10/07 11:34:48;;;;;;;3.80;2.30;;;;;;;27.79;44.09;98226.81;1222421;75;2922802;-68
2023/10/07 11:37:22;;;;;;;2.90;2.00;;;;;;;29.47;42.21;98220.66;1224215;75;2925240;-67
2023/10/07 11:39:57;;;;;;;3.65;2.40;;;;;;;28.99;43.49;98215.69;1224596;75;2926871;-73
2023/10/07 11:42:29;;;;;;;3.30;2.35;;;;;;;28.62;42.79;98223.41;1223823;75;2941055;-70
2023/10/07 11:45:04;;;;;;;5.20;3.00;;;;;;;28.67;41.30;98222.41;1224119;75;2919656;-74
2023/10/07 11:47:39;;;;;;;3.95;2.20;;;;;;;28.41;42.56;98212.66;1224772;75;2919822;-70
2023/10/07 11:50:14;;;;;;;3.55;2.20;;;;;;;28.21;42.51;98204.13;1224229;75;2922952;-68
2023/10/07 11:52:47;;;;;;;3.65;2.55;;;;;;;29.32;41.91;98206.84;1224022;75;2922912;-70
2023/10/07 11:55:22;;;;;;;3.00;1.95;;;;;;;30.00;39.94;98200.41;1224548;75;2926854;-72
2023/10/07 11:57:55;;;;;;;3.45;2.40;;;;;;;28.43;40.87;98202.28;1221368;75;3068722;-69
2023/10/07 12:00:34;;;;;;;2.70;1.80;;;;;;;29.15;41.11;98195.69;1224500;75;2924870;-72
2023/10/07 12:03:10;;;;;;;3.40;2.10;;;;;;;29.20;40.95;98189.00;1224149;75;2935129;-69
2023/10/07 12:05:43;;;;;;;3.35;2.00;;;;;;;29.46;38.23;98190.19;1224044;75;2918001;-71
2023/10/07 12:08:16;;;;;;;3.90;2.10;;;;;;;29.09;39.49;98184.72;1218916;75;3066659;-70
2023/10/07 12:10:51;;;;;;;1.85;1.45;;;;;;;29.79;38.17;98193.31;1223960;75;2937338;-68
2023/10/07 12:13:26;;;;;;;3.40;1.80;;;;;;;29.68;38.62;98186.22;1224956;75;2925811;-75
2023/10/07 12:16:00;;;;;;;8.60;2.60;;;;;;;29.17;38.61;98187.38;1225215;75;2932376;-69